Time;durP1;ratioP1;P1;durP2;ratioP2;P2;SDS_P1;SDS_P2;PMS_P1;PMS_P2;Temp;Humidity;BMP_temperature;BMP_pressure;BME280_temperature;BME280_humidity;BME280_pressure;Samples;Min_cycle;Max_cycle;Signal;HPM_P1;HPM_P2
2021/06/19 00:00:19;;;;;;;13.75;9.68;;;23.00;99.90;;;;;;6270661;22;20012;-81
2021/06/19 00:02:47;;;;;;;14.48;10.25;;;22.90;99.90;;;;;;6244553;22;20087;-83
2021/06/19 00:05:14;;;;;;;15.35;10.27;;;22.90;99.90;;;;;;6267068;22;20519;-82
2021/06/19 00:07:41;;;;;;;15.23;10.52;;;22.90;99.90;;;;;;6265569;22;20376;-82
2021/06/19 00:10:10;;;;;;;14.32;10.30;;;22.80;99.90;;;;;;6284597;22;20023;-83
2021/06/19 00:12:38;;;;;;;15.90;10.55;;;22.70;99.90;;;;;;6272035;22;20012;-83
2021/06/19 00:15:09;;;;;;;15.40;10.63;;;23.40;99.90;;;;;;6281085;22;20019;-83
2021/06/19 00:17:37;;;;;;;13.82;10.95;;;22.70;99.90;;;;;;6269514;22;20125;-82
2021/06/19 00:20:07;;;;;;;16.20;11.15;;;22.70;99.90;;;;;;6270228;22;20016;-82
2021/06/19 00:22:34;;;;;;;17.02;11.00;;;22.70;99.90;;;;;;6270550;22;20082;-83
2021/06/19 00:25:01;;;;;;;13.70;9.80;;;22.60;99.90;;;;;;6269270;22;20510;-83
2021/06/19 00:27:27;;;;;;;11.85;9.60;;;22.60;99.90;;;;;;6269990;22;20012;-82
2021/06/19 00:29:54;;;;;;;19.83;11.13;;;22.60;99.90;;;;;;6269590;22;20016;-83
2021/06/19 00:32:22;;;;;;;16.45;10.52;;;22.60;99.90;;;;;;6268637;22;20494;-82
2021/06/19 00:34:49;;;;;;;14.57;10.95;;;22.50;99.90;;;;;;6245295;22;20023;-82
2021/06/19 00:37:16;;;;;;;14.57;10.40;;;22.40;99.90;;;;;;6269804;22;20019;-83
2021/06/19 00:39:43;;;;;;;16.15;11.10;;;22.40;99.90;;;;;;6270448;22;20020;-82
2021/06/19 00:42:10;;;;;;;14.75;11.30;;;22.40;99.90;;;;;;6269937;22;20016;-83
2021/06/19 00:44:37;;;;;;;14.23;11.90;;;22.30;99.90;;;;;;6270161;22;20016;-83
2021/06/19 00:47:04;;;;;;;14.95;10.98;;;22.30;99.90;;;;;;6267923;22;20096;-83
2021/06/19 00:49:32;;;;;;;15.80;10.88;;;22.30;99.90;;;;;;6271123;22;20020;-83
2021/06/19 00:51:59;;;;;;;14.80;10.60;;;22.20;99.90;;;;;;6269756;22;20019;-83
2021/06/19 00:54:27;;;;;;;13.82;11.32;;;22.20;99.90;;;;;;6243172;22;20016;-83
2021/06/19 00:56:55;;;;;;;16.52;11.07;;;22.20;99.90;;;;;;6270296;22;20015;-83
2021/06/19 00:59:23;;;;;;;14.27;11.07;;;22.20;99.90;;;;;;6267778;22;20012;-82
2021/06/19 01:01:50;;;;;;;13.93;10.45;;;22.10;99.90;;;;;;6243253;22;20016;-83
2021/06/19 01:04:17;;;;;;;14.73;10.02;;;22.10;99.90;;;;;;6271977;22;20506;-82
2021/06/19 01:06:45;;;;;;;16.20;10.57;;;22.10;99.90;;;;;;6270546;22;20031;-83
2021/06/19 01:09:12;;;;;;;12.57;10.48;;;22.10;99.90;;;;;;6242261;22;20239;-82
2021/06/19 01:11:40;;;;;;;15.98;9.85;;;22.00;99.90;;;;;;6269014;22;20019;-82
2021/06/19 01:14:08;;;;;;;14.50;10.00;;;22.00;99.90;;;;;;6269139;22;20015;-82
2021/06/19 01:16:35;;;;;;;13.15;10.13;;;22.00;99.90;;;;;;6269676;22;20026;-83
2021/06/19 01:19:03;;;;;;;14.10;9.95;;;21.90;99.90;;;;;;6268868;22;20016;-83
2021/06/19 01:21:30;;;;;;;15.50;10.07;;;21.80;99.90;;;;;;6271578;22;20011;-83
2021/06/19 01:23:59;;;;;;;11.10;9.07;;;21.80;99.90;;;;;;6271087;22;20464;-82
2021/06/19 01:26:29;;;;;;;17.25;9.77;;;21.70;99.90;;;;;;6265776;22;20019;-83
2021/06/19 01:28:57;;;;;;;12.25;9.07;;;21.60;99.90;;;;;;6269867;22;20019;-82
2021/06/19 01:31:26;;;;;;;12.27;8.95;;;21.60;99.90;;;;;;6267689;22;20532;-85
2021/06/19 01:33:53;;;;;;;13.60;9.30;;;21.60;99.90;;;;;;6271401;22;20020;-82
2021/06/19 01:36:23;;;;;;;13.23;8.82;;;21.70;99.90;;;;;;6272524;22;20031;-82
2021/06/19 01:38:52;;;;;;;12.93;9.60;;;21.60;99.90;;;;;;6270619;22;20016;-83
2021/06/19 01:41:21;;;;;;;12.75;8.98;;;21.60;99.90;;;;;;6273268;22;20081;-83
2021/06/19 01:43:57;;;;;;;12.65;9.40;;;21.60;99.90;;;;;;6274376;22;20019;-82
2021/06/19 01:46:24;;;;;;;11.93;8.90;;;21.60;99.90;;;;;;6270889;22;20424;-82
2021/06/19 01:48:51;;;;;;;12.30;9.15;;;21.60;99.90;;;;;;6270732;22;20012;-83
2021/06/19 01:51:18;;;;;;;22.13;10.45;;;21.60;99.90;;;;;;6271417;22;20020;-83
2021/06/19 01:53:48;;;;;;;14.10;9.80;;;21.60;99.90;;;;;;6271039;22;20073;-82
2021/06/19 01:56:16;;;;;;;14.50;10.73;;;21.60;99.90;;;;;;6272536;22;20065;-82
2021/06/19 01:58:43;;;;;;;12.77;9.50;;;21.50;99.90;;;;;;6269011;22;20228;-82
2021/06/19 02:01:12;;;;;;;14.40;9.77;;;21.50;99.90;;;;;;6270163;22;20015;-82
2021/06/19 02:03:39;;;;;;;;;;;21.50;99.90;;;;;;6246561;22;20024;-83
2021/06/19 02:06:06;;;;;;;12.52;9.35;;;21.40;99.90;;;;;;6299071;22;19915;-84
2021/06/19 02:08:34;;;;;;;12.82;9.48;;;21.40;99.90;;;;;;6271695;22;20440;-83
2021/06/19 02:11:01;;;;;;;14.57;9.70;;;21.30;99.90;;;;;;6271697;22;20027;-82
2021/06/19 02:13:29;;;;;;;14.18;9.85;;;21.20;99.90;;;;;;6271454;22;20382;-83
2021/06/19 02:15:56;;;;;;;13.32;9.20;;;21.20;99.90;;;;;;6272085;22;20440;-84
2021/06/19 02:18:26;;;;;;;12.70;8.70;;;21.20;99.90;;;;;;6267264;22;20023;-85
2021/06/19 02:20:53;;;;;;;12.52;9.02;;;21.20;99.90;;;;;;6284809;22;20016;-83
2021/06/19 02:23:21;;;;;;;13.45;9.05;;;21.20;99.90;;;;;;6275744;22;20070;-83
2021/06/19 02:25:52;;;;;;;18.60;10.05;;;21.20;99.90;;;;;;6274224;22;20027;-84
2021/06/19 02:28:20;;;;;;;12.63;8.85;;;21.10;99.90;;;;;;6273721;22;20061;-84
2021/06/19 02:30:49;;;;;;;16.20;10.02;;;21.10;99.90;;;;;;6274862;22;20020;-85
2021/06/19 02:33:18;;;;;;;14.30;9.15;;;21.10;99.90;;;;;;6273955;22;20015;-85
2021/06/19 02:35:48;;;;;;;12.43;8.88;;;21.10;99.90;;;;;;6284361;22;20016;-83
2021/06/19 02:38:15;;;;;;;11.85;9.15;;;21.10;99.90;;;;;;6273151;22;20019;-83
2021/06/19 02:40:42;;;;;;;14.68;9.77;;;21.00;99.90;;;;;;6272731;22;20019;-83
2021/06/19 02:43:10;;;;;;;16.23;10.02;;;21.10;99.90;;;;;;6275095;22;20070;-83
2021/06/19 02:45:38;;;;;;;14.57;9.73;;;21.10;99.90;;;;;;6272644;22;20506;-83
2021/06/19 02:48:05;;;;;;;16.42;11.32;;;21.00;99.90;;;;;;6271908;22;20314;-83
2021/06/19 02:50:34;;;;;;;15.77;11.77;;;20.90;99.90;;;;;;6286011;22;20357;-83
2021/06/19 02:53:04;;;;;;;18.23;14.13;;;20.90;99.90;;;;;;6271125;22;20790;-82
2021/06/19 02:55:32;;;;;;;;;;;20.80;99.90;;;;;;6275225;22;20012;-83
2021/06/19 02:58:00;;;;;;;20.15;12.70;;;20.90;99.90;;;;;;6273527;22;20240;-83
2021/06/19 03:00:27;;;;;;;19.75;12.88;;;20.90;99.90;;;;;;6265961;22;20081;-81
2021/06/19 03:02:54;;;;;;;20.10;12.77;;;20.90;99.90;;;;;;6273477;22;20069;-82
2021/06/19 03:05:23;;;;;;;16.13;12.27;;;20.90;99.90;;;;;;6275349;22;20045;-83
2021/06/19 03:07:51;;;;;;;21.20;13.70;;;20.90;99.90;;;;;;6282377;22;20016;-84
2021/06/19 03:10:21;;;;;;;17.38;12.65;;;20.90;99.90;;;;;;6273581;22;20073;-83
2021/06/19 03:12:49;;;;;;;15.02;12.23;;;20.90;99.90;;;;;;6275215;22;20020;-83
2021/06/19 03:15:16;;;;;;;17.70;12.02;;;20.90;99.90;;;;;;6274990;22;20016;-84
2021/06/19 03:17:43;;;;;;;17.65;12.50;;;20.90;99.90;;;;;;6271229;22;20065;-83
2021/06/19 03:20:13;;;;;;;15.20;11.88;;;20.90;99.90;;;;;;6275494;22;20016;-83
2021/06/19 03:22:46;;;;;;;19.17;13.77;;;20.90;99.90;;;;;;6275114;22;20016;-85
2021/06/19 03:25:19;;;;;;;16.80;12.13;;;20.90;99.90;;;;;;6273868;22;20020;-83
2021/06/19 03:27:46;;;;;;;20.38;12.77;;;20.90;99.90;;;;;;6274110;22;20503;-82
2021/06/19 03:30:16;;;;;;;17.30;12.18;;;21.00;99.90;;;;;;6272033;22;20015;-85
2021/06/19 03:32:44;;;;;;;15.40;12.38;;;20.90;99.90;;;;;;6274511;22;20022;-84
2021/06/19 03:35:12;;;;;;;19.85;12.98;;;20.90;99.90;;;;;;6273068;22;20085;-85
2021/06/19 03:37:39;;;;;;;16.75;12.27;;;20.80;99.90;;;;;;6269837;22;20011;-84
2021/06/19 03:40:08;;;;;;;16.50;12.07;;;20.90;99.90;;;;;;6271681;22;20081;-83
2021/06/19 03:42:37;;;;;;;15.45;11.63;;;20.90;99.90;;;;;;6274726;22;20475;-82
2021/06/19 03:45:06;;;;;;;18.02;12.25;;;20.90;99.90;;;;;;6274178;22;20088;-82
2021/06/19 03:47:33;;;;;;;16.50;12.43;;;20.90;99.90;;;;;;6271991;22;20411;-82
2021/06/19 03:50:00;;;;;;;17.33;11.77;;;20.80;99.90;;;;;;6270611;22;20081;-83
2021/06/19 03:52:27;;;;;;;22.60;13.70;;;20.80;99.90;;;;;;6273040;22;20081;-83
2021/06/19 03:54:54;;;;;;;19.02;13.05;;;20.80;99.90;;;;;;6274992;22;20399;-82
2021/06/19 03:57:23;;;;;;;15.60;11.85;;;20.70;99.90;;;;;;6274155;22;20019;-83
2021/06/19 03:59:52;;;;;;;;;;;20.70;99.90;;;;;;6270770;22;20019;-83
2021/06/19 04:02:19;;;;;;;12.43;9.07;;;20.70;99.90;;;;;;6298875;22;19969;-83
2021/06/19 04:04:46;;;;;;;14.00;8.88;;;20.80;99.90;;;;;;6283502;22;20019;-83
2021/06/19 04:07:13;;;;;;;12.70;7.70;;;20.80;99.90;;;;;;6271697;22;20012;-84
2021/06/19 04:09:40;;;;;;;10.35;7.18;;;20.80;99.90;;;;;;6270641;22;20053;-83
2021/06/19 04:12:08;;;;;;;12.73;7.57;;;20.80;99.90;;;;;;6274045;22;20023;-82
2021/06/19 04:14:35;;;;;;;10.43;7.43;;;20.90;99.90;;;;;;6273221;22;20016;-83
2021/06/19 04:17:03;;;;;;;10.23;6.95;;;21.00;99.90;;;;;;6280254;22;20015;-83
2021/06/19 04:19:30;;;;;;;11.10;6.88;;;21.00;99.90;;;;;;6272077;22;20520;-84
2021/06/19 04:21:57;;;;;;;11.27;7.40;;;21.00;99.90;;;;;;6283879;22;20035;-84
2021/06/19 04:24:24;;;;;;;12.23;6.95;;;21.10;99.90;;;;;;6246860;22;20024;-84
2021/06/19 04:26:51;;;;;;;14.10;6.80;;;21.10;99.90;;;;;;6272656;22;20322;-85
2021/06/19 04:29:18;;;;;;;13.25;6.20;;;21.10;99.90;;;;;;6271535;22;20012;-84
2021/06/19 04:31:44;;;;;;;11.02;7.00;;;21.10;99.90;;;;;;6273772;22;20016;-84
2021/06/19 04:34:13;;;;;;;10.00;6.28;;;21.10;99.90;;;;;;6273290;22;20024;-83
2021/06/19 04:36:40;;;;;;;10.90;6.07;;;21.10;99.90;;;;;;6273340;22;20023;-83
2021/06/19 04:39:06;;;;;;;11.07;6.95;;;21.10;99.90;;;;;;6270987;22;20077;-83
2021/06/19 04:41:43;;;;;;;15.00;7.05;;;21.20;99.90;;;;;;6245663;22;20016;-82
2021/06/19 04:45:11;;;;;;;11.15;6.65;;;21.20;99.90;;;;;;6272004;22;20440;-82
2021/06/19 04:47:06;;;;;;;11.93;6.38;;;21.30;99.90;;;;;;6251037;22;20255;-82
2021/06/19 04:49:35;;;;;;;12.07;6.75;;;21.20;99.90;;;;;;6272341;22;20392;-83
2021/06/19 04:52:02;;;;;;;10.52;6.93;;;21.30;99.90;;;;;;6282940;22;20020;-83
2021/06/19 04:54:36;;;;;;;10.27;6.40;;;21.30;99.90;;;;;;6271841;22;20015;-83
2021/06/19 04:57:05;;;;;;;11.27;6.65;;;21.30;99.90;;;;;;6273097;22;20019;-83
2021/06/19 04:59:32;;;;;;;12.43;7.05;;;21.40;99.90;;;;;;6269065;22;20077;-83
2021/06/19 05:01:59;;;;;;;10.50;6.50;;;21.40;99.90;;;;;;6273314;22;20020;-82
2021/06/19 05:04:26;;;;;;;10.80;7.25;;;21.40;99.90;;;;;;6270842;22;20023;-83
2021/06/19 05:06:54;;;;;;;11.32;6.53;;;21.40;99.90;;;;;;6268675;22;20125;-83
2021/06/19 05:09:21;;;;;;;9.60;6.88;;;21.40;99.90;;;;;;6271441;22;20470;-84
2021/06/19 05:11:48;;;;;;;9.73;5.93;;;21.40;99.90;;;;;;6270588;22;20279;-83
2021/06/19 05:14:15;;;;;;;7.70;4.80;;;21.50;99.90;;;;;;6246274;22;20020;-83
2021/06/19 05:16:42;;;;;;;9.43;4.68;;;21.50;99.90;;;;;;6272825;22;20011;-84
2021/06/19 05:19:09;;;;;;;9.85;3.80;;;21.50;99.90;;;;;;6271985;22;20419;-83
2021/06/19 05:21:35;;;;;;;9.32;4.43;;;21.50;99.90;;;;;;6272793;22;20069;-83
2021/06/19 05:24:05;;;;;;;8.77;4.30;;;21.60;99.90;;;;;;6273951;22;20375;-85
2021/06/19 05:26:32;;;;;;;8.30;4.15;;;21.60;99.90;;;;;;6247629;22;20027;-84
2021/06/19 05:28:58;;;;;;;11.70;4.57;;;21.60;99.90;;;;;;6281208;22;20023;-83
2021/06/19 05:31:26;;;;;;;8.77;4.30;;;21.70;99.90;;;;;;6282764;22;20046;-83
2021/06/19 05:33:53;;;;;;;10.57;4.10;;;21.80;99.90;;;;;;6271826;22;20403;-84
2021/06/19 05:36:20;;;;;;;6.68;3.83;;;21.80;99.90;;;;;;6273358;22;20020;-84
2021/06/19 05:38:46;;;;;;;6.55;4.22;;;21.90;99.90;;;;;;6271055;22;20513;-84
2021/06/19 05:41:15;;;;;;;8.68;3.72;;;21.90;99.90;;;;;;6271656;22;20046;-83
2021/06/19 05:43:41;;;;;;;8.50;4.75;;;22.00;99.90;;;;;;6273413;22;20015;-83
2021/06/19 05:46:08;;;;;;;7.63;4.40;;;22.10;99.90;;;;;;6274613;22;20024;-85
2021/06/19 05:48:36;;;;;;;8.43;4.60;;;22.00;99.90;;;;;;6275927;22;20262;-83
2021/06/19 05:51:03;;;;;;;7.53;4.20;;;22.00;99.90;;;;;;6269123;22;20073;-82
2021/06/19 05:53:30;;;;;;;8.02;4.70;;;22.10;99.90;;;;;;6269962;22;20044;-82
2021/06/19 05:55:57;;;;;;;7.38;3.63;;;22.10;99.90;;;;;;6269274;22;20065;-82
2021/06/19 05:58:25;;;;;;;6.55;3.95;;;22.10;99.90;;;;;;6272810;22;20015;-83
2021/06/19 06:00:52;;;;;;;7.32;3.25;;;22.20;99.90;;;;;;6247031;22;20019;-83
2021/06/19 06:03:19;;;;;;;9.68;3.75;;;22.20;99.90;;;;;;6256784;22;20016;-83
2021/06/19 06:05:46;;;;;;;10.00;3.80;;;22.30;99.90;;;;;;6273212;22;20020;-82
2021/06/19 06:08:12;;;;;;;9.10;2.95;;;22.30;99.90;;;;;;6271846;22;20073;-83
2021/06/19 06:10:40;;;;;;;6.50;3.22;;;22.40;99.90;;;;;;6274559;22;20085;-83
2021/06/19 06:13:07;;;;;;;7.45;3.40;;;22.40;99.90;;;;;;6272026;22;20074;-83
2021/06/19 06:15:35;;;;;;;8.73;4.18;;;22.50;99.90;;;;;;6272384;22;20085;-84
2021/06/19 06:18:02;;;;;;;7.88;4.15;;;22.50;99.90;;;;;;6273389;22;20016;-83
2021/06/19 06:20:29;;;;;;;6.25;3.15;;;22.50;99.90;;;;;;6282157;22;20020;-84
2021/06/19 06:22:56;;;;;;;6.93;3.42;;;22.60;99.90;;;;;;6271847;22;20020;-84
2021/06/19 06:25:23;;;;;;;6.15;3.30;;;22.60;99.90;;;;;;6272397;22;20019;-84
2021/06/19 06:27:49;;;;;;;5.78;2.85;;;24.40;99.90;;;;;;6246582;22;20077;-84
2021/06/19 06:30:17;;;;;;;7.18;3.17;;;22.70;99.90;;;;;;6273573;22;20081;-85
2021/06/19 06:32:45;;;;;;;5.43;3.00;;;22.80;99.90;;;;;;6273291;22;20628;-83
2021/06/19 06:35:14;;;;;;;4.78;2.65;;;22.80;99.90;;;;;;6273315;22;20015;-83
2021/06/19 06:37:42;;;;;;;8.32;3.15;;;22.80;99.90;;;;;;6283527;22;20015;-85
2021/06/19 06:40:11;;;;;;;7.75;2.60;;;22.90;99.90;;;;;;6273344;22;20012;-83
2021/06/19 06:42:41;;;;;;;6.43;2.90;;;23.00;99.90;;;;;;6267044;22;20081;-85
2021/06/19 06:45:14;;;;;;;5.18;2.90;;;23.00;99.90;;;;;;6273061;22;20328;-83
2021/06/19 06:47:49;;;;;;;5.18;2.83;;;23.00;99.90;;;;;;6270944;22;20468;-82
2021/06/19 06:50:16;;;;;;;6.20;2.72;;;23.10;99.90;;;;;;6275304;22;20026;-83
2021/06/19 06:52:44;;;;;;;6.80;3.00;;;23.00;99.90;;;;;;6284289;22;20043;-83
2021/06/19 06:55:12;;;;;;;5.70;2.50;;;23.10;99.90;;;;;;6271545;22;20019;-83
2021/06/19 06:57:41;;;;;;;;;;;23.10;99.90;;;;;;6283704;22;20046;-82
2021/06/19 07:00:09;;;;;;;5.00;2.30;;;23.20;99.90;;;;;;6271406;22;19969;-84
2021/06/19 07:02:39;;;;;;;7.95;2.30;;;23.20;99.90;;;;;;6271218;22;20039;-82
2021/06/19 07:05:09;;;;;;;5.60;2.45;;;23.30;99.90;;;;;;6271208;22;20045;-81
2021/06/19 07:07:36;;;;;;;3.25;2.13;;;23.30;99.90;;;;;;6269685;22;20023;-81
2021/06/19 07:10:03;;;;;;;4.93;2.35;;;23.30;99.90;;;;;;6271819;22;20012;-82
2021/06/19 07:12:30;;;;;;;4.68;1.95;;;23.30;99.90;;;;;;6272477;22;20077;-81
2021/06/19 07:14:57;;;;;;;6.20;2.33;;;23.20;99.90;;;;;;6246604;22;20403;-82
2021/06/19 07:17:24;;;;;;;6.05;2.20;;;23.20;99.90;;;;;;6273171;22;20015;-83
2021/06/19 07:19:51;;;;;;;6.50;2.17;;;23.20;99.90;;;;;;6275294;22;20020;-82
2021/06/19 07:22:19;;;;;;;7.55;2.53;;;23.30;99.90;;;;;;6243791;22;20074;-82
2021/06/19 07:24:47;;;;;;;4.20;2.13;;;23.40;99.90;;;;;;6271479;22;20023;-83
2021/06/19 07:27:13;;;;;;;5.57;2.50;;;23.50;99.90;;;;;;6271829;22;20065;-82
2021/06/19 07:29:41;;;;;;;5.82;2.22;;;23.50;99.90;;;;;;6270427;22;20050;-82
2021/06/19 07:32:08;;;;;;;3.60;1.88;;;23.60;99.90;;;;;;6270738;22;20019;-81
2021/06/19 07:34:35;;;;;;;3.95;1.98;;;23.60;99.90;;;;;;6268016;22;20012;-82
2021/06/19 07:37:02;;;;;;;5.90;1.70;;;23.60;99.90;;;;;;6244204;22;20069;-82
2021/06/19 07:39:30;;;;;;;2.97;1.60;;;23.70;99.90;;;;;;6271481;22;20012;-82
2021/06/19 07:41:58;;;;;;;3.72;1.73;;;23.70;99.90;;;;;;6259424;22;20016;-85
2021/06/19 07:44:25;;;;;;;8.15;1.70;;;23.70;99.90;;;;;;6210247;23;20389;-86
2021/06/19 07:46:51;;;;;;;3.47;1.70;;;23.70;99.90;;;;;;6234271;23;20351;-85
2021/06/19 07:49:19;;;;;;;4.50;1.70;;;23.80;99.90;;;;;;6235508;23;20023;-86
2021/06/19 07:51:46;;;;;;;5.03;1.60;;;23.80;99.90;;;;;;6208050;23;20505;-86
2021/06/19 07:54:16;;;;;;;2.88;1.77;;;23.90;99.90;;;;;;6232587;23;20021;-84
2021/06/19 07:56:45;;;;;;;4.88;1.50;;;23.80;99.90;;;;;;6235774;23;20020;-85
2021/06/19 07:59:12;;;;;;;1.98;1.30;;;23.80;99.90;;;;;;6210872;23;20009;-82
2021/06/19 08:01:39;;;;;;;4.07;1.58;;;23.80;99.90;;;;;;6232366;23;20053;-83
2021/06/19 08:04:06;;;;;;;2.35;1.27;;;24.80;99.90;;;;;;6231000;23;20027;-81
2021/06/19 08:06:33;;;;;;;2.63;1.40;;;23.90;99.90;;;;;;6226578;23;20020;-84
2021/06/19 08:09:01;;;;;;;4.05;1.40;;;23.90;99.90;;;;;;6233515;23;20016;-80
2021/06/19 08:11:28;;;;;;;3.25;1.27;;;23.90;99.90;;;;;;6206805;23;20036;-85
2021/06/19 08:13:56;;;;;;;2.03;1.20;;;24.00;99.90;;;;;;6234994;23;20577;-85
2021/06/19 08:16:25;;;;;;;3.17;1.55;;;24.00;99.90;;;;;;6207717;23;20450;-84
2021/06/19 08:18:52;;;;;;;2.35;1.10;;;24.00;99.90;;;;;;6209979;23;20075;-85
2021/06/19 08:21:19;;;;;;;4.15;1.50;;;24.10;99.90;;;;;;6229462;23;20024;-84
2021/06/19 08:23:46;;;;;;;3.08;1.33;;;24.00;99.90;;;;;;6236338;23;20609;-85
2021/06/19 08:26:13;;;;;;;5.60;1.63;;;24.30;99.90;;;;;;6234221;23;20054;-86
2021/06/19 08:28:40;;;;;;;2.75;1.50;;;25.30;99.90;;;;;;6234592;23;20024;-83
2021/06/19 08:31:08;;;;;;;4.97;1.55;;;24.10;99.90;;;;;;6244097;23;20024;-87
2021/06/19 08:33:35;;;;;;;2.75;1.33;;;24.20;99.90;;;;;;6234175;23;20115;-87
2021/06/19 08:36:02;;;;;;;3.65;1.40;;;24.10;99.90;;;;;;6209200;23;20320;-84
2021/06/19 08:38:29;;;;;;;5.82;1.13;;;24.20;99.90;;;;;;6231127;23;20040;-87
2021/06/19 08:40:57;;;;;;;2.13;1.15;;;24.20;99.90;;;;;;6234029;23;20012;-87
2021/06/19 08:43:28;;;;;;;3.10;1.27;;;24.20;99.90;;;;;;6214055;23;20013;-85
2021/06/19 08:45:56;;;;;;;2.90;1.17;;;24.20;99.90;;;;;;6185442;23;20036;-86
2021/06/19 08:48:24;;;;;;;3.40;1.10;;;24.20;99.90;;;;;;6182381;23;20635;-82
2021/06/19 08:50:53;;;;;;;2.65;0.90;;;24.10;99.90;;;;;;6181132;23;20025;-84
2021/06/19 08:53:20;;;;;;;2.00;1.00;;;24.20;99.90;;;;;;6183470;23;20450;-86
2021/06/19 08:55:59;;;;;;;6.28;1.30;;;24.20;99.90;;;;;;6181429;23;20055;-82
2021/06/19 08:58:25;;;;;;;3.05;1.40;;;24.20;99.90;;;;;;6180296;23;20463;-86
2021/06/19 09:00:52;;;;;;;2.58;1.35;;;24.20;99.90;;;;;;6182186;23;20063;-85
2021/06/19 09:03:21;;;;;;;2.60;1.10;;;24.30;99.90;;;;;;6182149;23;20123;-86
2021/06/19 09:05:51;;;;;;;2.22;1.25;;;24.40;99.90;;;;;;6185996;23;20016;-85
2021/06/19 09:08:21;;;;;;;6.25;1.40;;;24.50;99.90;;;;;;6185048;23;20176;-84
2021/06/19 09:10:48;;;;;;;2.97;1.30;;;24.50;99.90;;;;;;6181230;23;20017;-82
2021/06/19 09:13:15;;;;;;;3.03;1.50;;;24.50;99.90;;;;;;6182593;23;20024;-86
2021/06/19 09:15:44;;;;;;;2.53;1.10;;;24.50;99.90;;;;;;6184622;23;20021;-83
2021/06/19 09:18:17;;;;;;;1.85;1.10;;;24.60;99.90;;;;;;6184034;23;20438;-86
2021/06/19 09:20:49;;;;;;;4.30;1.10;;;24.50;99.90;;;;;;6182824;23;20379;-83
2021/06/19 09:23:27;;;;;;;2.53;1.10;;;24.50;99.90;;;;;;6183675;23;20017;-86
2021/06/19 09:26:14;;;;;;;2.25;0.90;;;24.50;99.90;;;;;;6209973;23;20087;-86
2021/06/19 09:29:06;;;;;;;2.22;1.10;;;24.60;99.90;;;;;;6181810;23;20017;-85
2021/06/19 09:31:36;;;;;;;2.03;1.00;;;24.60;99.20;;;;;;6183321;23;20394;-86
2021/06/19 09:34:05;;;;;;;2.05;0.80;;;24.60;98.50;;;;;;6184092;23;20021;-84
2021/06/19 09:36:49;;;;;;;2.05;1.00;;;24.60;98.50;;;;;;6184379;23;20457;-86
2021/06/19 09:39:19;;;;;;;2.28;0.80;;;24.50;98.90;;;;;;6208538;23;20020;-85
2021/06/19 09:41:47;;;;;;;3.72;1.08;;;24.60;99.90;;;;;;6184035;23;20067;-84
2021/06/19 09:44:15;;;;;;;1.85;0.90;;;24.60;99.60;;;;;;6182417;23;20024;-86
2021/06/19 09:46:42;;;;;;;2.22;0.95;;;24.70;99.30;;;;;;6184741;23;20446;-85
2021/06/19 09:49:12;;;;;;;2.13;1.00;;;24.70;98.80;;;;;;6183792;23;20017;-83
2021/06/19 09:51:49;;;;;;;;;;;24.70;99.10;;;;;;6183376;23;20025;-86
2021/06/19 09:54:18;;;;;;;4.10;1.10;;;24.80;99.50;;;;;;6209089;23;19966;-85
2021/06/19 09:56:46;;;;;;;;;;;24.70;99.70;;;;;;6184204;23;20354;-82
2021/06/19 09:59:24;;;;;;;3.75;1.00;;;24.90;99.50;;;;;;6209235;23;19915;-85
2021/06/19 10:01:51;;;;;;;1.83;0.90;;;24.90;99.10;;;;;;6184660;23;20020;-82
2021/06/19 10:04:23;;;;;;;1.23;0.90;;;25.00;99.60;;;;;;6184127;23;20027;-86
2021/06/19 10:06:51;;;;;;;2.85;0.80;;;25.00;99.90;;;;;;6181103;23;20244;-83
2021/06/19 10:09:19;;;;;;;1.95;0.80;;;25.00;98.20;;;;;;6209548;23;20075;-83
2021/06/19 10:11:49;;;;;;;2.63;0.95;;;25.00;97.60;;;;;;6183788;23;20008;-84
2021/06/19 10:14:18;;;;;;;1.75;1.02;;;25.10;98.60;;;;;;6184573;23;20083;-83
2021/06/19 10:16:48;;;;;;;3.10;1.00;;;25.10;99.10;;;;;;6183433;23;20024;-84
2021/06/19 10:19:22;;;;;;;1.92;0.82;;;25.20;99.90;;;;;;6185475;23;20112;-81
2021/06/19 10:21:51;;;;;;;2.00;1.08;;;25.20;98.30;;;;;;6209616;23;20023;-85
2021/06/19 10:24:20;;;;;;;3.15;0.98;;;25.20;98.70;;;;;;6185178;23;20067;-86
2021/06/19 10:26:47;;;;;;;;;;;25.30;98.30;;;;;;6185787;23;20070;-85
2021/06/19 10:29:15;;;;;;;1.98;0.80;;;25.30;98.30;;;;;;6208314;23;19920;-84
2021/06/19 10:31:44;;;;;;;1.65;0.80;;;25.30;96.90;;;;;;6182827;23;20438;-84
2021/06/19 10:34:18;;;;;;;;;;;26.90;97.00;;;;;;6185526;23;20339;-85
2021/06/19 10:36:45;;;;;;;3.97;0.80;;;25.40;97.50;;;;;;6210522;23;19919;-85
2021/06/19 10:39:28;;;;;;;1.73;0.90;;;25.50;97.40;;;;;;6183887;23;20016;-84
2021/06/19 10:41:57;;;;;;;2.38;0.80;;;25.50;98.00;;;;;;6185969;23;20012;-83
2021/06/19 10:44:50;;;;;;;2.28;0.88;;;25.60;96.80;;;;;;6184989;23;20390;-85
2021/06/19 10:47:17;;;;;;;1.60;0.80;;;25.60;97.10;;;;;;6184558;23;20495;-82
2021/06/19 10:49:44;;;;;;;3.75;0.90;;;25.70;96.70;;;;;;6184615;23;20394;-84
2021/06/19 10:52:27;;;;;;;3.42;1.10;;;25.70;97.10;;;;;;6184969;23;20079;-86
2021/06/19 10:55:25;;;;;;;2.75;1.00;;;25.70;96.20;;;;;;6210916;23;20021;-84
2021/06/19 10:57:55;;;;;;;2.85;0.90;;;25.80;95.70;;;;;;6185024;23;20028;-81
2021/06/19 11:00:32;;;;;;;1.45;0.88;;;25.80;97.60;;;;;;6184969;23;20059;-83
2021/06/19 11:03:01;;;;;;;1.83;0.90;;;25.90;98.20;;;;;;6193084;23;20071;-84
2021/06/19 11:05:53;;;;;;;6.07;1.03;;;25.90;98.00;;;;;;6185518;23;20020;-87
2021/06/19 11:08:21;;;;;;;1.33;0.70;;;26.00;96.60;;;;;;6186663;23;20520;-87
2021/06/19 11:10:56;;;;;;;2.97;0.90;;;26.00;95.80;;;;;;6188130;23;20437;-86
2021/06/19 11:13:45;;;;;;;3.53;0.88;;;26.00;95.80;;;;;;6185549;23;20020;-86
2021/06/19 11:16:43;;;;;;;2.00;0.88;;;26.10;96.40;;;;;;6188026;23;20087;-86
2021/06/19 11:19:10;;;;;;;2.20;0.80;;;26.10;95.00;;;;;;6187719;23;20107;-87
2021/06/19 11:21:39;;;;;;;2.67;0.90;;;26.30;95.30;;;;;;6188052;23;20013;-87
2021/06/19 11:24:10;;;;;;;1.75;1.02;;;26.20;95.70;;;;;;6187626;23;20025;-86
2021/06/19 11:26:51;;;;;;;1.48;0.80;;;26.20;96.40;;;;;;6188747;23;20017;-87
2021/06/19 11:29:40;;;;;;;1.38;0.80;;;26.40;97.20;;;;;;6187563;23;20017;-87
2021/06/19 11:32:24;;;;;;;2.22;0.70;;;26.30;94.60;;;;;;6187611;23;20066;-87
2021/06/19 11:34:51;;;;;;;1.08;0.70;;;26.40;95.40;;;;;;6212134;23;20027;-87
2021/06/19 11:37:19;;;;;;;1.88;0.80;;;26.30;95.90;;;;;;6187089;23;20025;-87
2021/06/19 11:39:46;;;;;;;1.85;0.80;;;26.40;93.50;;;;;;6188230;23;20025;-87
2021/06/19 11:42:14;;;;;;;1.17;0.70;;;26.40;94.00;;;;;;6187907;23;20012;-86
2021/06/19 11:44:43;;;;;;;1.35;0.80;;;26.40;94.60;;;;;;6186655;23;20016;-87
2021/06/19 11:47:12;;;;;;;1.83;0.80;;;26.50;94.70;;;;;;6188422;23;20083;-86
2021/06/19 11:49:42;;;;;;;1.87;0.87;;;27.70;95.60;;;;;;6187434;23;20357;-87
2021/06/19 11:52:12;;;;;;;1.55;0.90;;;26.60;94.60;;;;;;6188436;23;20776;-87
2021/06/19 11:54:45;;;;;;;2.72;0.70;;;26.70;95.00;;;;;;6183056;23;20017;-86
2021/06/19 11:57:26;;;;;;;1.88;0.90;;;26.30;94.40;;;;;;6188330;23;20020;-83
2021/06/19 12:00:10;;;;;;;3.10;0.98;;;26.80;93.70;;;;;;6187661;23;20082;-86
2021/06/19 12:02:37;;;;;;;1.58;0.90;;;26.70;94.60;;;;;;6187132;23;20468;-86
2021/06/19 12:05:12;;;;;;;2.35;0.85;;;28.80;95.00;;;;;;6187421;23;20028;-87
2021/06/19 12:07:39;;;;;;;1.73;0.80;;;26.90;94.50;;;;;;6185428;23;20021;-86
2021/06/19 12:10:24;;;;;;;1.60;0.75;;;27.20;93.90;;;;;;6185915;23;20514;-86
2021/06/19 12:13:02;;;;;;;1.33;0.77;;;27.00;95.10;;;;;;6185829;23;20070;-86
2021/06/19 12:15:31;;;;;;;2.97;1.00;;;27.00;93.30;;;;;;6187364;23;20457;-86
2021/06/19 12:18:00;;;;;;;;;;;27.00;94.10;;;;;;6186880;23;20016;-86
2021/06/19 12:20:27;;;;;;;3.38;0.90;;;27.10;93.90;;;;;;6187114;23;20242;-84
2021/06/19 12:22:54;;;;;;;4.15;0.70;;;27.10;92.70;;;;;;6222563;23;20029;-86
2021/06/19 12:25:29;;;;;;;1.02;0.63;;;27.20;93.00;;;;;;6187054;23;20025;-87
2021/06/19 12:27:56;;;;;;;2.95;0.80;;;27.30;94.30;;;;;;6187083;23;20083;-87
2021/06/19 12:30:23;;;;;;;1.40;0.70;;;27.40;94.50;;;;;;6188097;23;20067;-87
2021/06/19 12:32:52;;;;;;;2.30;0.80;;;27.60;94.30;;;;;;6188131;23;20032;-84
2021/06/19 12:35:21;;;;;;;1.80;0.88;;;27.60;93.60;;;;;;6186485;23;20012;-87
2021/06/19 12:37:51;;;;;;;1.40;0.70;;;27.60;92.50;;;;;;6185489;23;20397;-87
2021/06/19 12:40:21;;;;;;;1.92;0.80;;;27.70;91.70;;;;;;6187560;23;20091;-87
2021/06/19 12:43:01;;;;;;;1.98;0.90;;;27.70;91.20;;;;;;6186020;23;20512;-87
2021/06/19 12:45:31;;;;;;;1.77;0.70;;;27.60;91.90;;;;;;6213897;23;20021;-86
2021/06/19 12:48:02;;;;;;;1.48;0.75;;;27.50;92.80;;;;;;6187387;23;20016;-87
2021/06/19 12:50:38;;;;;;;2.17;0.90;;;27.60;92.50;;;;;;6187091;23;20443;-86
2021/06/19 12:53:07;;;;;;;3.05;1.02;;;27.70;92.60;;;;;;6187591;23;20354;-84